createdAt,value
2023-04-14T00:03:41.348Z,75.48081
2023-04-14T00:08:42.738Z,79.63589
2023-04-14T00:13:44.368Z,76.35603
2023-04-14T00:18:45.728Z,80.07752
2023-04-14T00:23:47.223Z,78.91578
2023-04-14T00:28:48.549Z,78.55316
2023-04-14T00:33:49.972Z,78.45284
2023-04-14T00:38:51.664Z,78.15768
2023-04-14T00:43:52.990Z,80.89908
2023-04-14T00:48:54.585Z,79.53053
2023-04-14T00:53:56.369Z,77.96793
2023-04-14T00:59:00.484Z,77.92347
2023-04-14T01:04:05.295Z,78.0183
2023-04-14T01:09:11.231Z,81.00374
2023-04-14T01:14:14.152Z,80.34081
2023-04-14T01:19:16.131Z,82.99886
2023-04-14T01:24:21.105Z,79.61396
2023-04-14T01:29:22.698Z,80.36816
2023-04-14T01:34:30.801Z,81.02793
2023-04-14T01:39:37.066Z,84.5153
2023-04-14T01:44:38.404Z,86.64045
2023-04-14T01:49:39.699Z,86.49834
2023-04-14T01:54:41.373Z,89.66095
2023-04-14T01:59:42.819Z,87.81791
2023-04-14T02:04:44.233Z,87.18713
2023-04-14T02:09:45.532Z,90.29234
2023-04-14T02:14:46.912Z,86.53665
2023-04-14T02:19:48.368Z,85.85335
2023-04-14T02:24:49.768Z,82.84874
2023-04-14T02:29:51.287Z,83.13859
2023-04-14T02:34:57.861Z,82.42263
2023-04-14T02:39:59.748Z,82.249
2023-04-14T02:45:01.354Z,82.81325
2023-04-14T02:50:02.951Z,82.79514
2023-04-14T02:55:04.766Z,82.50032
2023-04-14T03:00:06.473Z,83.63059
2023-04-14T03:05:08.000Z,85.55475
2023-04-14T03:10:09.613Z,86.64517
2023-04-14T03:15:10.953Z,87.5865
2023-04-14T03:20:12.209Z,85.39394
2023-04-14T03:25:13.604Z,89.01918
2023-04-14T03:30:15.124Z,86.73504
2023-04-14T03:35:16.498Z,87.20494
2023-04-14T03:40:18.080Z,87.43344
2023-04-14T03:45:23.867Z,88.79403
2023-04-14T03:50:29.821Z,88.26604
2023-04-14T03:55:36.361Z,89.51255
2023-04-14T04:00:46.017Z,91.73805
2023-04-14T04:05:55.926Z,93.23304
2023-04-14T04:10:59.958Z,89.95804
2023-04-14T04:16:10.046Z,90.5771
2023-04-14T04:21:13.974Z,93.81439
2023-04-14T04:26:16.452Z,88.92165
2023-04-14T04:31:18.173Z,92.65934
2023-04-14T04:36:25.470Z,89.24065
2023-04-14T04:41:35.797Z,87.59789
2023-04-14T04:46:47.067Z,90.05384
2023-04-14T04:51:52.784Z,86.56864
2023-04-14T04:56:56.434Z,84.46952
2023-04-14T05:01:59.896Z,83.53498
2023-04-14T05:07:01.777Z,80.99751
2023-04-14T05:12:08.607Z,81.04104
2023-04-14T05:17:17.663Z,78.39119
2023-04-14T05:22:23.201Z,76.19058
2023-04-14T05:27:36.705Z,74.36974
2023-04-14T05:32:41.731Z,73.58987
2023-04-14T05:37:44.356Z,73.12128
2023-04-14T05:42:47.598Z,74.91935
2023-04-14T05:47:56.021Z,72.38523
2023-04-14T05:53:06.953Z,72.63767
2023-04-14T05:58:23.486Z,68.63764
2023-04-14T06:03:32.962Z,67.37828
2023-04-14T06:08:39.141Z,63.16117
2023-04-14T06:13:52.528Z,62.798
2023-04-14T06:19:01.702Z,60.53807
2023-04-14T06:24:13.971Z,58.94232
2023-04-14T06:29:17.288Z,50.93942
2023-04-14T06:34:22.025Z,49.80116
2023-04-14T06:39:28.611Z,46.97202
2023-04-14T06:44:39.852Z,46.77516
2023-04-14T06:49:41.630Z,43.14031
2023-04-14T06:54:42.972Z,42.8757
2023-04-14T06:59:44.472Z,42.01389
2023-04-14T07:04:46.064Z,42.16943
2023-04-14T07:09:47.449Z,40.72239
2023-04-14T07:14:48.832Z,39.31052
2023-04-14T07:19:50.604Z,37.58175
2023-04-14T07:24:52.196Z,35.97749
2023-04-14T07:29:53.864Z,35.34584
2023-04-14T07:34:56.280Z,33.83916
2023-04-14T07:39:59.033Z,33.44469
2023-04-14T07:45:00.703Z,34.40308
2023-04-14T07:50:02.507Z,32.72514
2023-04-14T07:55:04.556Z,33.40222
2023-04-14T08:00:06.170Z,33.84566
2023-04-14T08:05:07.816Z,29.94331
2023-04-14T08:10:09.601Z,30.66634
2023-04-14T08:15:11.499Z,31.30818
2023-04-14T08:20:13.037Z,30.63089
2023-04-14T08:25:14.572Z,29.19993
2023-04-14T08:30:16.495Z,28.90574
2023-04-14T08:35:39.343Z,29.34423
2023-04-14T08:40:43.047Z,28.58794
2023-04-14T08:45:45.129Z,29.22039
2023-04-14T08:50:46.863Z,27.72819
2023-04-14T08:55:48.585Z,28.72727
2023-04-14T09:00:50.425Z,27.52817
2023-04-14T09:05:52.181Z,27.84084
2023-04-14T09:10:53.933Z,27.74611
2023-04-14T09:15:55.711Z,28.50779
2023-04-14T09:21:28.964Z,28.41524
2023-04-14T09:26:52.839Z,28.02369
2023-04-14T09:31:54.311Z,26.91117
2023-04-14T09:36:56.034Z,30.32813
2023-04-14T09:41:57.593Z,28.34945
2023-04-14T09:46:59.167Z,29.20449
2023-04-14T09:52:00.659Z,29.44436
2023-04-14T09:57:02.263Z,28.9736
2023-04-14T10:02:03.992Z,28.21594
2023-04-14T10:07:05.411Z,27.20582
2023-04-14T10:12:08.300Z,27.50976
2023-04-14T10:17:11.019Z,28.62632
2023-04-14T10:22:12.333Z,26.47629
2023-04-14T10:27:14.095Z,27.4663
2023-04-14T10:32:20.769Z,26.04158
2023-04-14T10:37:22.505Z,26.62494
2023-04-14T10:42:24.250Z,27.12923
2023-04-14T10:47:26.135Z,24.74282
2023-04-14T10:52:27.722Z,25.06964
2023-04-14T10:57:29.231Z,25.63674
2023-04-14T11:02:31.341Z,25.85229
2023-04-14T11:07:33.198Z,25.29418
2023-04-14T11:12:34.835Z,26.03349
2023-04-14T11:17:36.828Z,24.59911
2023-04-14T11:22:38.542Z,25.51429
2023-04-14T11:27:39.906Z,25.6565
2023-04-14T11:32:41.696Z,24.50787
2023-04-14T11:37:43.287Z,23.32785
2023-04-14T11:42:44.734Z,23.82918
2023-04-14T11:47:46.145Z,23.14874
2023-04-14T11:52:47.505Z,22.68854
2023-04-14T11:57:48.883Z,24.62168
2023-04-14T12:02:50.388Z,23.63692
2023-04-14T12:07:52.089Z,21.06681
2023-04-14T12:12:54.303Z,20.87331
2023-04-14T12:17:57.058Z,21.21464
2023-04-14T12:22:58.920Z,22.47957
2023-04-14T12:28:00.766Z,22.27796
2023-04-14T12:33:02.662Z,21.302
2023-04-14T12:38:04.319Z,21.25618
2023-04-14T12:43:05.980Z,20.87097
2023-04-14T12:48:07.709Z,20.97419
2023-04-14T12:53:09.665Z,21.39724
2023-04-14T12:58:11.312Z,22.74575
2023-04-14T13:03:13.300Z,21.67915
2023-04-14T13:08:15.103Z,21.63396
2023-04-14T13:13:16.780Z,20.94754
2023-04-14T13:18:18.672Z,21.94925
2023-04-14T13:23:20.630Z,20.52926
2023-04-14T13:28:22.262Z,20.87675
2023-04-14T13:33:24.110Z,20.54899
2023-04-14T13:38:25.903Z,20.53571
2023-04-14T13:43:27.751Z,20.3887
2023-04-14T13:48:29.475Z,20.6654
2023-04-14T13:53:31.358Z,20.19651
2023-04-14T13:58:32.952Z,20.36391
2023-04-14T14:03:34.907Z,20.0246
2023-04-14T14:08:36.802Z,20.02683
2023-04-14T14:13:38.666Z,19.81892
2023-04-14T14:18:40.292Z,20.77575
2023-04-14T14:23:41.784Z,20.59902
2023-04-14T14:28:43.100Z,20.1352
2023-04-14T14:33:44.424Z,20.78749
2023-04-14T14:38:46.046Z,20.45992
2023-04-14T14:43:47.587Z,20.85598
2023-04-14T14:48:49.212Z,21.01619
2023-04-14T14:53:50.502Z,20.56828
2023-04-14T14:58:51.980Z,21.36392
2023-04-14T15:03:53.417Z,21.23285
2023-04-14T15:08:55.163Z,21.24626
2023-04-14T15:13:56.602Z,21.35971
2023-04-14T15:18:57.953Z,21.50994
2023-04-14T15:24:00.107Z,21.60611
2023-04-14T15:29:02.178Z,22.0478
2023-04-14T15:34:04.337Z,22.23525
2023-04-14T15:39:06.477Z,22.91615
2023-04-14T15:44:08.203Z,23.25569
2023-04-14T15:49:09.881Z,23.9349
2023-04-14T15:54:11.336Z,24.06815
2023-04-14T15:59:12.989Z,25.1275
2023-04-14T16:04:14.656Z,25.4624
2023-04-14T16:09:16.392Z,25.83768
2023-04-14T16:14:18.058Z,26.02015
2023-04-14T16:19:20.053Z,26.72239
2023-04-14T16:24:22.521Z,27.00446
2023-04-14T16:29:24.126Z,27.86366
2023-04-14T16:34:25.847Z,28.42883
2023-04-14T16:39:27.549Z,28.83715
2023-04-14T16:44:29.568Z,28.78172
2023-04-14T16:49:31.416Z,29.81487
2023-04-14T16:54:33.114Z,29.16993
2023-04-14T16:59:34.805Z,29.72111
2023-04-14T17:04:36.706Z,29.49759
2023-04-14T17:09:38.450Z,29.47351
2023-04-14T17:14:40.049Z,29.48028
2023-04-14T17:19:41.517Z,29.28583
2023-04-14T17:24:43.228Z,29.90354
2023-04-14T17:29:44.795Z,30.18158
2023-04-14T17:34:46.202Z,30.726
2023-04-14T17:39:47.660Z,30.3422
2023-04-14T17:44:49.111Z,31.01561
2023-04-14T17:49:50.376Z,31.32274
2023-04-14T17:54:51.587Z,31.28754
2023-04-14T17:59:53.106Z,31.21873
2023-04-14T18:04:54.907Z,31.19216
2023-04-14T18:09:56.237Z,31.05292
2023-04-14T18:14:57.588Z,31.21634
2023-04-14T18:19:59.361Z,32.34671
2023-04-14T18:25:00.719Z,32.1323
2023-04-14T18:30:01.996Z,32.51105
2023-04-14T18:35:03.501Z,31.86845
2023-04-14T18:40:04.934Z,31.58797
2023-04-14T18:45:06.213Z,31.60335
2023-04-14T18:50:07.714Z,32.07749
2023-04-14T18:55:09.232Z,32.29853
2023-04-14T19:00:10.547Z,32.62724
2023-04-14T19:05:12.266Z,32.55752
2023-04-14T19:10:13.696Z,32.79467
2023-04-14T19:15:15.394Z,32.9259
2023-04-14T19:20:17.114Z,32.46627
2023-04-14T19:25:18.452Z,32.74155
2023-04-14T19:30:20.011Z,33.1788
2023-04-14T19:35:21.639Z,32.98418
2023-04-14T19:40:23.074Z,33.18926
2023-04-14T19:45:24.535Z,33.13451
2023-04-14T19:50:26.063Z,33.94066
2023-04-14T19:55:27.371Z,33.92392
2023-04-14T20:00:28.741Z,34.39864
2023-04-14T20:05:30.113Z,34.77692
2023-04-14T20:10:31.780Z,35.55367
2023-04-14T20:15:33.191Z,35.05523
2023-04-14T20:20:34.607Z,35.43361
2023-04-14T20:25:35.865Z,35.47547
2023-04-14T20:30:37.207Z,34.63994
2023-04-14T20:35:38.603Z,36.62879
2023-04-14T20:40:40.057Z,39.01851
2023-04-14T20:45:41.486Z,41.76114
2023-04-14T20:50:42.980Z,43.83286
2023-04-14T20:55:44.249Z,44.98829
2023-04-14T21:00:45.586Z,47.39431
2023-04-14T21:05:47.120Z,46.56249
2023-04-14T21:11:16.225Z,47.89554
2023-04-14T21:16:19.865Z,46.19559
2023-04-14T21:21:21.453Z,44.71361
2023-04-14T21:26:23.036Z,44.50654
2023-04-14T21:31:24.826Z,47.10552
2023-04-14T21:36:26.809Z,44.78512
2023-04-14T21:41:28.404Z,45.28933
2023-04-14T21:46:30.034Z,44.7435
2023-04-14T21:51:31.736Z,44.37028
2023-04-14T21:56:33.328Z,44.62847
2023-04-14T22:01:35.004Z,46.50923
2023-04-14T22:06:37.057Z,49.87808
2023-04-14T22:11:39.081Z,51.64124
2023-04-14T22:16:40.735Z,52.31876
2023-04-14T22:21:42.443Z,54.75034
2023-04-14T22:26:43.844Z,51.34213
2023-04-14T22:31:45.154Z,52.60498
2023-04-14T22:36:46.431Z,54.11761
2023-04-14T22:41:47.717Z,54.29234
2023-04-14T22:46:49.061Z,55.17141
2023-04-14T22:51:50.624Z,55.13045
2023-04-14T22:56:51.863Z,57.93359
2023-04-14T23:01:53.341Z,55.99892
2023-04-14T23:06:54.779Z,58.99944
2023-04-14T23:11:55.997Z,60.36174
2023-04-14T23:16:57.377Z,58.93308
2023-04-14T23:21:58.981Z,61.47087
2023-04-14T23:27:00.256Z,62.04749
2023-04-14T23:32:01.800Z,61.08333
2023-04-14T23:37:03.538Z,64.44807
2023-04-14T23:42:05.008Z,64.9809
2023-04-14T23:47:08.448Z,63.91732
2023-04-14T23:52:10.132Z,65.17439
2023-04-14T23:57:11.776Z,65.3921
